createdAt,value
2019-02-28T00:00:46.237Z,98153.24
2019-02-28T00:03:26.133Z,98145.63
2019-02-28T00:05:54.982Z,98144.75
2019-02-28T00:08:25.672Z,98143.38
2019-02-28T00:10:55.473Z,98142.90
2019-02-28T00:13:25.456Z,98143.39
2019-02-28T00:15:56.450Z,98148.03
2019-02-28T00:18:31.509Z,98151.45
2019-02-28T00:21:06.019Z,98146.79
2019-02-28T00:23:33.416Z,98144.44
2019-02-28T00:26:03.234Z,98138.86
2019-02-28T00:28:32.988Z,98144.53
2019-02-28T00:31:07.120Z,98135.45
2019-02-28T00:33:37.415Z,98135.27
2019-02-28T00:36:09.263Z,98130.74
2019-02-28T00:38:39.049Z,98136.81
2019-02-28T00:41:10.250Z,98140.78
2019-02-28T00:43:41.788Z,98135.25
2019-02-28T00:46:12.136Z,98139.38
2019-02-28T00:48:41.930Z,98127.67
2019-02-28T00:51:13.062Z,98134.86
2019-02-28T00:53:43.357Z,98143.41
2019-02-28T00:56:13.302Z,98139.08
2019-02-28T00:58:46.105Z,98140.23
2019-02-28T01:01:19.887Z,98135.58
2019-02-28T01:03:52.963Z,98131.38
2019-02-28T01:06:25.084Z,98135.13
2019-02-28T01:08:56.082Z,98122.03
2019-02-28T01:11:29.342Z,98119.34
2019-02-28T01:14:02.477Z,98119.25
2019-02-28T01:16:34.593Z,98120.39
2019-02-28T01:19:08.869Z,98116.67
2019-02-28T01:21:36.496Z,98116.13
2019-02-28T01:24:07.014Z,98110.06
2019-02-28T01:26:43.309Z,98115.56
2019-02-28T01:29:13.797Z,98113.53
2019-02-28T01:31:47.904Z,98112.41
2019-02-28T01:34:18.676Z,98105.63
2019-02-28T01:36:50.170Z,98104.38
2019-02-28T01:39:22.635Z,98100.56
2019-02-28T01:41:58.784Z,98103.13
2019-02-28T01:44:35.595Z,98096.55
2019-02-28T01:47:09.706Z,98092.34
2019-02-28T01:49:41.516Z,98084.94
2019-02-28T01:52:17.584Z,98082.75
2019-02-28T01:54:49.396Z,98084.81
2019-02-28T01:57:19.857Z,98079.66
2019-02-28T01:59:53.664Z,98081.13
2019-02-28T02:02:28.879Z,98084.83
2019-02-28T02:05:04.328Z,98081.51
2019-02-28T02:07:36.549Z,98079.78
2019-02-28T02:10:11.405Z,98071.31
2019-02-28T02:12:42.667Z,98072.16
2019-02-28T02:15:17.817Z,98073.91
2019-02-28T02:17:48.862Z,98067.94
2019-02-28T02:20:23.394Z,98073.27
2019-02-28T02:22:54.443Z,98068.91
2019-02-28T02:25:25.839Z,98070.58
2019-02-28T02:27:55.996Z,98073.55
2019-02-28T02:30:27.312Z,98073.62
2019-02-28T02:32:57.087Z,98074.41
2019-02-28T02:35:28.176Z,98072.70
2019-02-28T02:38:03.476Z,98074.95
2019-02-28T02:40:34.653Z,98076.16
2019-02-28T02:43:07.411Z,98073.77
2019-02-28T02:45:43.405Z,98079.52
2019-02-28T02:48:11.997Z,98081.24
2019-02-28T02:50:42.758Z,98079.41
2019-02-28T02:53:12.541Z,98079.64
2019-02-28T02:55:42.345Z,98079.64
2019-02-28T02:58:12.803Z,98077.81
2019-02-28T03:00:49.839Z,98071.27
2019-02-28T03:03:20.902Z,98072.87
2019-02-28T03:05:52.842Z,98069.66
2019-02-28T03:08:25.219Z,98068.78
2019-02-28T03:10:59.877Z,98071.23
2019-02-28T03:13:29.759Z,98071.34
2019-02-28T03:16:01.236Z,98069.09
2019-02-28T03:18:32.725Z,98060.72
2019-02-28T03:21:03.235Z,98067.84
2019-02-28T03:23:39.851Z,98061.95
2019-02-28T03:26:11.354Z,98058.05
2019-02-28T03:28:42.364Z,98061.86
2019-02-28T03:31:16.238Z,98058.13
2019-02-28T03:33:47.450Z,98055.84
2019-02-28T03:36:20.375Z,98055.84
2019-02-28T03:38:53.318Z,98054.39
2019-02-28T03:41:25.320Z,98047.14
2019-02-28T03:44:00.303Z,98054.26
2019-02-28T03:46:32.819Z,98051.55
2019-02-28T03:49:03.114Z,98054.90
2019-02-28T03:51:32.883Z,98055.84
2019-02-28T03:54:05.559Z,98058.96
2019-02-28T03:56:40.747Z,98054.72
2019-02-28T03:59:18.177Z,98057.77
2019-02-28T04:01:45.472Z,98057.52
2019-02-28T04:04:15.847Z,98052.44
2019-02-28T04:06:47.074Z,98053.08
2019-02-28T04:09:18.305Z,98050.94
2019-02-28T04:11:51.104Z,98051.61
2019-02-28T04:14:28.588Z,98051.38
2019-02-28T04:17:08.226Z,98047.90
2019-02-28T04:19:39.951Z,98048.70
2019-02-28T04:22:19.555Z,98046.45
2019-02-28T04:24:48.980Z,98048.53
2019-02-28T04:27:23.642Z,98046.17
2019-02-28T04:29:53.461Z,98050.55
2019-02-28T04:32:31.183Z,98044.91
2019-02-28T04:35:01.363Z,98046.80
2019-02-28T04:37:32.169Z,98042.17
2019-02-28T04:40:06.570Z,98031.90
2019-02-28T04:42:38.999Z,98031.90
2019-02-28T04:45:11.627Z,98039.84
2019-02-28T04:47:41.773Z,98032.27
2019-02-28T04:50:12.561Z,98030.34
2019-02-28T04:52:46.737Z,98031.77
2019-02-28T04:55:16.253Z,98032.51
2019-02-28T04:57:46.005Z,98026.31
2019-02-28T05:00:19.390Z,98025.96
2019-02-28T05:02:53.718Z,98034.03
2019-02-28T05:05:22.345Z,98037.19
2019-02-28T05:07:52.121Z,98035.22
2019-02-28T05:10:23.116Z,98034.72
2019-02-28T05:12:57.388Z,98018.63
2019-02-28T05:15:34.590Z,98018.63
2019-02-28T05:18:06.063Z,98016.55
2019-02-28T05:20:44.674Z,98038.08
2019-02-28T05:23:10.968Z,98023.66
2019-02-28T05:25:40.761Z,98028.13
2019-02-28T05:28:11.414Z,98031.00
2019-02-28T05:30:42.467Z,98020.52
2019-02-28T05:33:12.550Z,98026.03
2019-02-28T05:35:42.379Z,98025.31
2019-02-28T05:38:12.220Z,98026.92
2019-02-28T05:40:45.460Z,98026.92
2019-02-28T05:43:16.067Z,98024.56
2019-02-28T05:45:48.746Z,98027.28
2019-02-28T05:48:19.060Z,98027.28
2019-02-28T05:50:53.354Z,98026.16
2019-02-28T05:53:22.374Z,98024.82
2019-02-28T05:55:52.896Z,98035.91
2019-02-28T05:58:23.917Z,98025.66
2019-02-28T06:00:55.010Z,98032.97
2019-02-28T06:03:35.711Z,98034.23
2019-02-28T06:06:07.984Z,98028.39
2019-02-28T06:08:39.046Z,98014.22
2019-02-28T06:11:12.298Z,98029.64
2019-02-28T06:13:42.142Z,98035.20
2019-02-28T06:16:14.346Z,98047.33
2019-02-28T06:18:44.340Z,98038.09
2019-02-28T06:21:14.113Z,98038.09
2019-02-28T06:23:45.775Z,98057.42
2019-02-28T06:26:15.721Z,98057.42
2019-02-28T06:28:45.529Z,98058.45
2019-02-28T06:31:17.751Z,98063.10
2019-02-28T06:33:49.706Z,98069.59
2019-02-28T06:36:20.884Z,98065.06
2019-02-28T06:38:51.480Z,98071.23
2019-02-28T06:41:26.754Z,98072.74
2019-02-28T06:44:01.769Z,98078.11
2019-02-28T06:46:34.688Z,98078.81
2019-02-28T06:49:09.414Z,98078.33
2019-02-28T06:51:48.442Z,98080.49
2019-02-28T06:54:22.502Z,98082.77
2019-02-28T06:57:09.026Z,98076.08
2019-02-28T06:59:38.923Z,98076.75
2019-02-28T07:02:13.802Z,98093.06
2019-02-28T07:07:39.201Z,98094.04
2019-02-28T07:10:16.109Z,98096.32
2019-02-28T07:12:49.967Z,98103.93
2019-02-28T07:18:12.492Z,98101.49
2019-02-28T07:20:43.703Z,98110.09
2019-02-28T07:23:15.629Z,98102.33
2019-02-28T07:25:47.390Z,98110.37
2019-02-28T07:28:17.977Z,98113.27
2019-02-28T07:30:50.466Z,98110.72
2019-02-28T07:33:23.744Z,98113.94
2019-02-28T07:35:57.559Z,98120.38
2019-02-28T07:38:31.509Z,98105.70
2019-02-28T07:41:04.969Z,98110.90
2019-02-28T07:43:45.866Z,98112.19
2019-02-28T07:46:12.302Z,98103.84
2019-02-28T07:48:42.518Z,98090.64
2019-02-28T07:51:12.659Z,98106.69
2019-02-28T07:53:46.420Z,98096.19
2019-02-28T07:56:20.567Z,98104.32
2019-02-28T07:58:55.970Z,98097.16
2019-02-28T08:01:31.872Z,98099.89
2019-02-28T08:04:04.473Z,98102.14
2019-02-28T08:06:39.213Z,98098.13
2019-02-28T08:09:17.411Z,98106.19
2019-02-28T08:12:04.827Z,98101.98
2019-02-28T08:14:36.018Z,98104.56
2019-02-28T08:17:09.977Z,98107.76
2019-02-28T08:19:41.121Z,98113.20
2019-02-28T08:22:11.874Z,98115.30
2019-02-28T08:24:45.311Z,98110.83
2019-02-28T08:27:19.048Z,98112.78
2019-02-28T08:29:48.908Z,98109.08
2019-02-28T08:32:23.918Z,98112.28
2019-02-28T08:35:00.430Z,98108.61
2019-02-28T08:37:33.385Z,98104.25
2019-02-28T08:40:12.569Z,98107.61
2019-02-28T08:42:43.396Z,98112.94
2019-02-28T08:45:20.385Z,98106.31
2019-02-28T08:47:55.409Z,98107.38
2019-02-28T08:50:28.400Z,98118.47
2019-02-28T08:53:06.528Z,98112.53
2019-02-28T08:55:43.651Z,98111.72
2019-02-28T08:58:13.702Z,98111.98
2019-02-28T09:00:45.349Z,98116.95
2019-02-28T09:03:24.310Z,98115.22
2019-02-28T09:05:54.184Z,98117.05
2019-02-28T09:08:25.314Z,98101.34
2019-02-28T09:11:00.825Z,98111.98
2019-02-28T09:13:30.631Z,98100.02
2019-02-28T09:16:01.998Z,98096.55
2019-02-28T09:18:36.300Z,98098.44
2019-02-28T09:21:08.732Z,98100.05
2019-02-28T09:23:38.632Z,98100.05
2019-02-28T09:26:13.132Z,98098.50
2019-02-28T09:28:44.446Z,98098.38
2019-02-28T09:31:15.156Z,98100.11
2019-02-28T09:33:45.013Z,98099.27
2019-02-28T09:36:20.236Z,98099.44
2019-02-28T09:38:46.290Z,98089.84
2019-02-28T09:41:16.349Z,98083.05
2019-02-28T09:43:46.100Z,98086.41
2019-02-28T09:46:16.444Z,98080.16
2019-02-28T09:48:47.672Z,98082.50
2019-02-28T09:51:20.132Z,98082.81
2019-02-28T09:53:51.001Z,98072.16
2019-02-28T09:56:20.869Z,98078.69
2019-02-28T09:58:50.623Z,98066.30
2019-02-28T10:01:21.252Z,98067.49
2019-02-28T10:03:55.470Z,98061.32
2019-02-28T10:06:25.000Z,98061.62
2019-02-28T10:08:54.844Z,98058.84
2019-02-28T10:11:31.217Z,98059.97
2019-02-28T10:13:59.766Z,98054.05
2019-02-28T10:16:29.532Z,98057.42
2019-02-28T10:19:05.283Z,98043.91
2019-02-28T10:21:39.643Z,98056.80
2019-02-28T10:24:10.612Z,98057.59
2019-02-28T10:26:51.217Z,98050.28
2019-02-28T10:29:20.887Z,98045.44
2019-02-28T10:31:55.690Z,98041.36
2019-02-28T10:34:26.377Z,98039.77
2019-02-28T10:37:00.346Z,98037.57
2019-02-28T10:39:30.906Z,98041.66
2019-02-28T10:42:08.431Z,98039.45
2019-02-28T10:44:41.121Z,98031.50
2019-02-28T10:47:15.188Z,98030.54
2019-02-28T10:49:45.735Z,98027.25
2019-02-28T10:52:19.685Z,98027.23
2019-02-28T10:54:55.161Z,98024.69
2019-02-28T10:57:29.149Z,98035.31
2019-02-28T11:00:03.932Z,98024.41
2019-02-28T11:02:44.820Z,98015.99
2019-02-28T11:05:29.198Z,98024.23
2019-02-28T11:08:19.285Z,98018.77
2019-02-28T11:11:10.591Z,98009.05
2019-02-28T11:14:05.036Z,98007.16
2019-02-28T11:16:58.903Z,98007.16
2019-02-28T11:19:37.331Z,97995.44
2019-02-28T11:22:31.750Z,98001.42
2019-02-28T11:25:18.032Z,97994.88
2019-02-28T11:28:17.736Z,98002.26
2019-02-28T11:30:57.629Z,97997.92
2019-02-28T11:33:40.562Z,97973.95
2019-02-28T11:36:22.168Z,97973.94
2019-02-28T11:39:03.944Z,97976.68
2019-02-28T11:41:52.607Z,97971.70
2019-02-28T11:44:47.726Z,97959.23
2019-02-28T11:47:26.433Z,97960.63
2019-02-28T11:50:03.552Z,97960.06
2019-02-28T11:52:32.784Z,97961.56
2019-02-28T11:55:06.695Z,97955.92
2019-02-28T11:57:37.766Z,97952.66
2019-02-28T12:00:15.198Z,97949.02
2019-02-28T12:02:53.389Z,97939.92
2019-02-28T12:05:23.165Z,97938.29
2019-02-28T12:07:52.981Z,97927.42
2019-02-28T12:10:22.989Z,97931.23
2019-02-28T12:13:00.004Z,97928.52
2019-02-28T12:15:32.975Z,97925.23
2019-02-28T12:18:05.428Z,97927.67
2019-02-28T12:20:41.248Z,97918.70
2019-02-28T12:23:15.271Z,97919.82
2019-02-28T12:25:45.022Z,97916.07
2019-02-28T12:28:16.375Z,97898.68
2019-02-28T12:30:50.455Z,97890.22
2019-02-28T12:33:23.129Z,97887.33
2019-02-28T12:35:54.780Z,97883.59
2019-02-28T12:38:28.266Z,97879.33
2019-02-28T12:40:59.252Z,97871.06
2019-02-28T12:43:31.266Z,97859.66
2019-02-28T12:46:01.020Z,97860.88
2019-02-28T12:48:30.891Z,97856.43
2019-02-28T12:51:02.278Z,97854.11
2019-02-28T12:53:33.785Z,97847.05
2019-02-28T12:56:04.587Z,97843.72
2019-02-28T12:58:41.785Z,97844.87
2019-02-28T13:01:11.501Z,97845.90
2019-02-28T13:03:42.211Z,97822.03
2019-02-28T13:06:15.681Z,97823.59
2019-02-28T13:08:51.079Z,97828.77
2019-02-28T13:11:21.364Z,97814.90
2019-02-28T13:14:00.088Z,97815.03
2019-02-28T13:16:43.694Z,97814.59
2019-02-28T13:19:24.958Z,97806.73
2019-02-28T13:22:05.181Z,97798.72
2019-02-28T13:24:46.416Z,97807.14
2019-02-28T13:27:23.171Z,97801.67
2019-02-28T13:30:11.805Z,97800.48
2019-02-28T13:32:51.270Z,97795.92
2019-02-28T13:35:46.027Z,97793.78
2019-02-28T13:38:23.238Z,97790.39
2019-02-28T13:40:55.198Z,97791.09
2019-02-28T13:43:37.398Z,97782.68
2019-02-28T13:46:14.738Z,97784.85
2019-02-28T13:48:59.427Z,97784.09
2019-02-28T13:51:42.074Z,97772.27
2019-02-28T13:54:22.729Z,97777.16
2019-02-28T13:57:08.113Z,97780.38
2019-02-28T13:59:40.954Z,97772.50
2019-02-28T14:02:21.457Z,97766.61
2019-02-28T14:05:03.037Z,97774.15
2019-02-28T14:07:42.278Z,97770.63
2019-02-28T14:10:24.945Z,97769.58
2019-02-28T14:12:59.427Z,97764.34
2019-02-28T14:15:47.975Z,97757.12
2019-02-28T14:18:22.559Z,97750.50
2019-02-28T14:20:59.555Z,97764.21
2019-02-28T14:23:30.804Z,97754.86
2019-02-28T14:26:01.215Z,97754.07
2019-02-28T14:28:32.404Z,97753.25
2019-02-28T14:31:03.776Z,97748.73
2019-02-28T14:33:33.600Z,97746.28
2019-02-28T14:36:03.379Z,97749.36
2019-02-28T14:38:35.319Z,97740.13
2019-02-28T14:41:05.179Z,97738.20
2019-02-28T14:43:36.198Z,97737.63
2019-02-28T14:46:10.171Z,97733.27
2019-02-28T14:48:40.788Z,97738.45
2019-02-28T14:51:10.612Z,97732.46
2019-02-28T14:53:40.525Z,97730.02
2019-02-28T14:56:10.430Z,97731.14
2019-02-28T14:58:40.236Z,97723.80
2019-02-28T15:01:10.681Z,97709.95
2019-02-28T15:03:47.155Z,97704.81
2019-02-28T15:06:18.705Z,97715.98
2019-02-28T15:08:50.893Z,97706.98
2019-02-28T15:11:19.983Z,97714.33
2019-02-28T15:13:49.778Z,97717.30
2019-02-28T15:16:21.557Z,97710.52
2019-02-28T15:18:51.840Z,97712.69
2019-02-28T15:21:21.591Z,97707.30
2019-02-28T15:23:51.564Z,97711.66
2019-02-28T15:26:22.933Z,97709.49
2019-02-28T15:28:52.697Z,97706.21
2019-02-28T15:31:22.472Z,97706.24
2019-02-28T15:33:52.848Z,97705.38
2019-02-28T15:36:24.323Z,97698.08
2019-02-28T15:38:54.361Z,97694.28
2019-02-28T15:41:24.197Z,97699.70
2019-02-28T15:43:54.431Z,97697.80
2019-02-28T15:46:24.208Z,97686.14
2019-02-28T15:48:54.208Z,97690.73
2019-02-28T15:51:25.651Z,97689.66
2019-02-28T15:53:56.840Z,97688.56
2019-02-28T15:56:26.754Z,97685.59
2019-02-28T15:58:56.638Z,97689.11
2019-02-28T16:01:28.647Z,97685.02
2019-02-28T16:04:01.196Z,97679.34
2019-02-28T16:06:31.419Z,97677.13
2019-02-28T16:09:05.192Z,97684.17
2019-02-28T16:11:40.937Z,97682.55
2019-02-28T16:14:14.470Z,97692.29
2019-02-28T16:16:41.543Z,97679.19
2019-02-28T16:19:14.879Z,97680.00
2019-02-28T16:21:52.813Z,97679.75
2019-02-28T16:24:24.753Z,97678.39
2019-02-28T16:27:01.433Z,97681.37
2019-02-28T16:29:32.381Z,97673.76
2019-02-28T16:32:03.945Z,97685.94
2019-02-28T16:34:38.794Z,97689.73
2019-02-28T16:37:11.445Z,97684.80
2019-02-28T16:39:42.580Z,97687.47
2019-02-28T16:42:17.459Z,97680.89
2019-02-28T16:44:48.067Z,97695.22
2019-02-28T16:47:24.478Z,97683.77
2019-02-28T16:49:55.585Z,97682.89
2019-02-28T16:52:27.331Z,97684.72
2019-02-28T16:54:57.617Z,97686.50
2019-02-28T16:57:32.586Z,97683.99
2019-02-28T17:00:04.038Z,97682.38
2019-02-28T17:02:37.188Z,97681.02
2019-02-28T17:05:13.020Z,97682.56
2019-02-28T17:07:44.544Z,97683.50
2019-02-28T17:10:17.596Z,97688.35
2019-02-28T17:12:59.528Z,97698.83
2019-02-28T17:15:44.237Z,97684.91
2019-02-28T17:18:21.649Z,97690.17
2019-02-28T17:20:50.821Z,97673.43
2019-02-28T17:23:22.737Z,97669.11
2019-02-28T17:25:53.582Z,97672.04
2019-02-28T17:28:34.652Z,97666.90
2019-02-28T17:31:08.396Z,97670.64
2019-02-28T17:33:37.684Z,97670.59
2019-02-28T17:36:11.659Z,97671.11
2019-02-28T17:38:41.526Z,97678.34
2019-02-28T17:41:11.341Z,97674.48
2019-02-28T17:43:41.459Z,97665.25
2019-02-28T17:46:14.059Z,97675.53
2019-02-28T17:48:59.131Z,97669.09
2019-02-28T17:51:37.406Z,97670.44
2019-02-28T17:54:13.139Z,97687.12
2019-02-28T17:57:03.926Z,97687.02
2019-02-28T17:59:56.697Z,97698.41
2019-02-28T18:03:00.681Z,97698.30
2019-02-28T18:05:46.283Z,97700.77
2019-02-28T18:08:39.801Z,97700.05
2019-02-28T18:11:12.497Z,97705.95
2019-02-28T18:13:55.225Z,97708.70
2019-02-28T18:16:47.214Z,97697.20
2019-02-28T18:19:33.076Z,97707.52
2019-02-28T18:22:12.760Z,97706.20
2019-02-28T18:25:09.122Z,97705.50
2019-02-28T18:28:00.997Z,97707.74
2019-02-28T18:30:47.423Z,97700.22
2019-02-28T18:33:19.430Z,97697.91
2019-02-28T18:35:49.061Z,97703.39
2019-02-28T18:38:18.829Z,97698.87
2019-02-28T18:40:48.615Z,97709.54
2019-02-28T18:43:18.531Z,97710.52
2019-02-28T18:45:50.291Z,97703.30
2019-02-28T18:48:20.125Z,97700.22
2019-02-28T18:50:50.069Z,97702.30
2019-02-28T18:53:21.500Z,97691.81
2019-02-28T18:55:51.448Z,97695.39
2019-02-28T18:58:23.149Z,97681.98
2019-02-28T19:00:57.277Z,97689.67
2019-02-28T19:03:31.736Z,97698.07
2019-02-28T19:06:03.556Z,97698.17
2019-02-28T19:08:38.867Z,97695.98
2019-02-28T19:11:11.123Z,97685.94
2019-02-28T19:13:43.232Z,97680.52
2019-02-28T19:16:19.935Z,97677.36
2019-02-28T19:18:55.395Z,97677.24
2019-02-28T19:21:25.205Z,97671.84
2019-02-28T19:23:55.785Z,97681.63
2019-02-28T19:26:25.577Z,97682.96
2019-02-28T19:28:55.706Z,97684.95
2019-02-28T19:31:26.736Z,97679.98
2019-02-28T19:33:56.556Z,97678.28
2019-02-28T19:36:26.314Z,97679.90
2019-02-28T19:38:56.096Z,97677.55
2019-02-28T19:41:26.165Z,97669.72
2019-02-28T19:43:56.051Z,97675.77
2019-02-28T19:46:25.820Z,97673.88
2019-02-28T19:48:57.703Z,97668.10
2019-02-28T19:51:27.626Z,97661.14
2019-02-28T19:54:08.099Z,97666.42
2019-02-28T19:56:44.010Z,97676.58
2019-02-28T19:59:14.975Z,97673.52
2019-02-28T20:01:45.466Z,97683.22
2019-02-28T20:04:18.694Z,97683.64
2019-02-28T20:06:57.047Z,97687.59
2019-02-28T20:09:27.875Z,97690.94
2019-02-28T20:12:02.919Z,97684.29
2019-02-28T20:14:34.613Z,97686.98
2019-02-28T20:17:21.982Z,97682.56
2019-02-28T20:19:54.280Z,97682.74
2019-02-28T20:22:37.288Z,97681.64
2019-02-28T20:25:16.449Z,97680.61
2019-02-28T20:27:51.861Z,97680.52
2019-02-28T20:30:25.082Z,97675.58
2019-02-28T20:33:00.908Z,97679.30
2019-02-28T20:35:34.428Z,97680.69
2019-02-28T20:38:04.489Z,97674.82
2019-02-28T20:40:41.543Z,97667.71
2019-02-28T20:43:13.435Z,97669.55
2019-02-28T20:45:44.007Z,97664.50
2019-02-28T20:48:16.794Z,97658.72
2019-02-28T20:50:49.949Z,97651.83
2019-02-28T20:53:24.427Z,97644.45
2019-02-28T20:55:54.483Z,97657.17
2019-02-28T20:58:26.714Z,97653.89
2019-02-28T21:00:56.463Z,97645.52
2019-02-28T21:03:31.492Z,97642.54
2019-02-28T21:06:02.728Z,97642.05
2019-02-28T21:08:32.440Z,97634.31
2019-02-28T21:11:02.267Z,97647.06
2019-02-28T21:13:32.086Z,97644.02
2019-02-28T21:16:01.887Z,97646.63
2019-02-28T21:18:31.697Z,97643.89
2019-02-28T21:21:01.442Z,97653.36
2019-02-28T21:23:33.407Z,97646.01
2019-02-28T21:26:11.356Z,97646.84
2019-02-28T21:28:44.775Z,97652.87
2019-02-28T21:31:14.645Z,97660.91
2019-02-28T21:33:44.453Z,97664.83
2019-02-28T21:36:14.262Z,97662.42
2019-02-28T21:38:44.009Z,97654.14
2019-02-28T21:41:13.930Z,97648.84
2019-02-28T21:43:44.018Z,97648.27
2019-02-28T21:46:14.170Z,97641.11
2019-02-28T21:48:44.766Z,97649.30
2019-02-28T21:51:17.351Z,97656.18
2019-02-28T21:53:48.413Z,97655.72
2019-02-28T21:56:19.417Z,97656.23
2019-02-28T21:58:51.738Z,97657.89
2019-02-28T22:01:26.831Z,97654.15
2019-02-28T22:04:03.376Z,97655.49
2019-02-28T22:06:39.271Z,97659.14
2019-02-28T22:09:12.694Z,97662.09
2019-02-28T22:11:46.212Z,97664.03
2019-02-28T22:14:16.797Z,97660.39
2019-02-28T22:16:48.526Z,97655.77
2019-02-28T22:19:20.367Z,97666.13
2019-02-28T22:21:55.281Z,97668.30
2019-02-28T22:24:29.247Z,97666.28
2019-02-28T22:27:13.305Z,97653.87
2019-02-28T22:29:45.593Z,97655.87
2019-02-28T22:32:24.513Z,97653.78
2019-02-28T22:34:55.927Z,97653.19
2019-02-28T22:37:36.713Z,97656.75
2019-02-28T22:40:06.779Z,97664.97
2019-02-28T22:42:40.187Z,97656.70
2019-02-28T22:45:11.461Z,97662.89
2019-02-28T22:47:44.903Z,97662.80
2019-02-28T22:50:14.819Z,97663.25
2019-02-28T22:52:44.571Z,97657.09
2019-02-28T22:55:14.344Z,97655.59
2019-02-28T22:57:44.354Z,97654.69
2019-02-28T23:00:39.666Z,97664.03
2019-02-28T23:03:10.996Z,97653.64
2019-02-28T23:05:44.757Z,97649.05
2019-02-28T23:08:14.989Z,97646.87
2019-02-28T23:10:44.761Z,97650.80
2019-02-28T23:13:14.547Z,97651.08
2019-02-28T23:15:44.376Z,97650.57
2019-02-28T23:18:14.120Z,97639.81
2019-02-28T23:20:43.864Z,97638.74
2019-02-28T23:23:13.689Z,97636.60
2019-02-28T23:25:43.477Z,97629.41
2019-02-28T23:28:25.122Z,97635.47
2019-02-28T23:31:13.130Z,97629.72
2019-02-28T23:33:43.619Z,97626.81
2019-02-28T23:36:13.577Z,97624.40
2019-02-28T23:38:43.380Z,97626.71
2019-02-28T23:41:13.179Z,97624.32
2019-02-28T23:43:42.966Z,97625.89
2019-02-28T23:46:14.704Z,97614.23
2019-02-28T23:48:44.529Z,97610.15
2019-02-28T23:51:14.286Z,97605.21
2019-02-28T23:53:44.029Z,97599.70
2019-02-28T23:56:14.251Z,97596.50
2019-02-28T23:58:44.014Z,97603.89
